メインページ
METAR-TAF:

METAR-TAF

空港 :

ファアア国際空港

タヒチ, フランス領ポリネシア

緯度: 17-33S, 経度: 149-37W, 海抜: 2m

現時点の気象観測

当レポートは34分前の20:30(UTC)に作成
西/北西の風 4kt
気温 29°C
湿度 62%
気圧 1015 hPa
視程10km以上
高度2300ftの雲はほとんどない

METAR: NTAA 222030Z 29004KT 9999 FEW023 29/21 Q1015 NOSIG

時間: 11:04 (21:04 UTC)

予報

当レポートは4時間4分前の17:00(UTC)に作成
予報は22日の 18時(UTC)から 23日の 24時(UTC)まで有効
変向風 5kt
視程10km以上
高度3000ftの雲はほとんどない
確率 40% :
22日の 22時(UTC)から 23日の 02時(UTC)まで一時的に
西の風 10kt
確率 30% :
23日の 12時(UTC)から 23日の 24時(UTC)まで一時的に
東/北東の風 12kt
視程: 4500m
高度2500ftの雲は散在している
高度4500ftの千切れ雲あり
にわか雨

TAF: NTAA 221700Z 2218/2324 VRB05KT 9999 FEW030 PROB40 TEMPO 2222/2302 28010KT PROB30 TEMPO 2312/2324 06012KT 4500 SHRA SCT025 BKN045

4,000以上の空港の気象観測と天気予報(METAR報とTAF報)

利用可能な観測所は地図上に黄色い丸と赤い丸で示す。

丸の上にカーソルを重ねると観測所名を参照できる。

次にクリックすると気象観測と天気予報を参照できる。

マップの切り替え:黒色「×」印の緑ボタンをクリックして拡大、「-」印の緑ボタンをクリックして縮小、緑色の三角印をクリックして隣りの地図に切り替え


METAR-TAF: